createdAt,value
2022-12-23T00:01:40.257Z,2.47
2022-12-23T00:04:09.935Z,2.52
2022-12-23T00:06:40.137Z,2.47
2022-12-23T00:09:08.989Z,1.91
2022-12-23T00:11:57.775Z,2.03
2022-12-23T00:14:44.134Z,1.99
2022-12-23T00:17:28.346Z,1.84
2022-12-23T00:19:57.402Z,1.82
2022-12-23T00:22:42.298Z,2.04
2022-12-23T00:25:12.324Z,2.07
2022-12-23T00:27:42.079Z,2.13
2022-12-23T00:30:12.173Z,1.96
2022-12-23T00:32:41.047Z,1.87
2022-12-23T00:35:10.360Z,1.97
2022-12-23T00:37:40.588Z,2.19
2022-12-23T00:40:30.882Z,2.22
2022-12-23T00:43:00.807Z,2.16
2022-12-23T00:45:29.654Z,2.36
2022-12-23T00:48:16.046Z,2.38
2022-12-23T00:50:44.921Z,2.36
2022-12-23T00:53:15.174Z,2.24
2022-12-23T00:55:46.126Z,2.21
2022-12-23T00:58:15.109Z,2.30
2022-12-23T01:01:02.151Z,2.41
2022-12-23T01:03:48.668Z,2.28
2022-12-23T01:06:18.153Z,2.49
2022-12-23T01:08:48.382Z,2.37
2022-12-23T01:11:17.149Z,2.27
2022-12-23T01:13:46.111Z,2.53
2022-12-23T01:16:17.587Z,2.38
2022-12-23T01:18:47.206Z,2.63
2022-12-23T01:21:16.096Z,2.62
2022-12-23T01:23:45.006Z,2.69
2022-12-23T01:26:15.203Z,2.85
2022-12-23T01:28:44.017Z,2.69
2022-12-23T01:31:13.013Z,2.82
2022-12-23T01:33:42.028Z,2.85
2022-12-23T01:36:12.102Z,2.70
2022-12-23T01:38:40.916Z,2.69
2022-12-23T01:41:29.779Z,2.52
2022-12-23T01:43:59.025Z,2.63
2022-12-23T01:46:27.893Z,2.34
2022-12-23T01:48:58.309Z,2.05
2022-12-23T01:51:31.115Z,2.27
2022-12-23T01:54:02.210Z,2.39
2022-12-23T01:56:36.799Z,2.56
2022-12-23T01:59:11.321Z,2.47
2022-12-23T02:01:57.485Z,2.52
2022-12-23T02:04:27.922Z,2.68
2022-12-23T02:07:13.971Z,2.70
2022-12-23T02:09:42.846Z,2.59
2022-12-23T02:12:42.528Z,2.74
2022-12-23T02:15:49.968Z,2.98
2022-12-23T02:18:33.216Z,2.89
2022-12-23T02:21:20.999Z,2.88
2022-12-23T02:24:40.846Z,3.08
2022-12-23T02:27:17.466Z,3.07
2022-12-23T02:30:24.850Z,2.78
2022-12-23T02:33:14.812Z,2.76
2022-12-23T02:35:53.794Z,2.86
2022-12-23T02:38:28.977Z,3.07
2022-12-23T02:41:07.974Z,2.82
2022-12-23T02:43:44.550Z,2.83
2022-12-23T02:46:21.470Z,2.77
2022-12-23T02:48:57.906Z,2.17
2022-12-23T02:51:32.302Z,2.00
2022-12-23T02:54:04.451Z,1.85
2022-12-23T02:56:36.374Z,1.70
2022-12-23T02:59:11.330Z,2.13
2022-12-23T03:01:42.069Z,2.35
2022-12-23T03:04:12.528Z,2.36
2022-12-23T03:06:44.495Z,2.50
2022-12-23T03:09:22.321Z,2.46
2022-12-23T03:11:59.739Z,2.37
2022-12-23T03:14:46.901Z,2.03
2022-12-23T03:17:32.010Z,1.77
2022-12-23T03:20:10.398Z,1.84
2022-12-23T03:22:46.323Z,1.93
2022-12-23T03:25:23.066Z,1.64
2022-12-23T03:27:58.060Z,1.93
2022-12-23T03:30:27.917Z,2.12
2022-12-23T03:33:02.740Z,2.09
2022-12-23T03:35:36.382Z,2.01
2022-12-23T03:38:06.003Z,2.32
2022-12-23T03:40:38.381Z,2.48
2022-12-23T03:43:13.118Z,2.47
2022-12-23T03:45:46.364Z,2.74
2022-12-23T03:48:20.867Z,2.46
2022-12-23T03:50:57.172Z,2.38
2022-12-23T03:53:30.838Z,2.39
2022-12-23T03:56:05.261Z,2.45
2022-12-23T03:58:39.711Z,2.58
2022-12-23T04:01:18.218Z,2.49
2022-12-23T04:03:56.045Z,2.44
2022-12-23T04:06:32.183Z,2.36
2022-12-23T04:09:02.821Z,2.31
2022-12-23T04:11:31.924Z,2.11
2022-12-23T04:14:01.160Z,1.61
2022-12-23T04:16:31.032Z,1.80
2022-12-23T04:18:59.880Z,1.74
2022-12-23T04:21:30.152Z,1.81
2022-12-23T04:23:59.011Z,1.88
2022-12-23T04:26:27.890Z,1.66
2022-12-23T04:28:56.689Z,1.80
2022-12-23T04:31:25.579Z,1.94
2022-12-23T04:33:54.435Z,1.76
2022-12-23T04:36:23.272Z,1.61
2022-12-23T04:38:53.480Z,1.99
2022-12-23T04:41:22.249Z,1.82
2022-12-23T04:43:53.347Z,2.01
2022-12-23T04:46:22.445Z,1.86
2022-12-23T04:48:51.313Z,1.92
2022-12-23T04:51:20.184Z,1.97
2022-12-23T04:53:49.031Z,1.99
2022-12-23T04:56:19.236Z,2.16
2022-12-23T04:58:48.105Z,2.15
2022-12-23T05:01:16.921Z,2.24
2022-12-23T05:03:45.795Z,1.99
2022-12-23T05:06:14.658Z,1.86
2022-12-23T05:08:43.471Z,2.42
2022-12-23T05:11:12.244Z,2.41
2022-12-23T05:13:42.381Z,2.30
2022-12-23T05:16:11.265Z,2.28
2022-12-23T05:18:40.125Z,1.76
2022-12-23T05:21:09.178Z,1.82
2022-12-23T05:23:39.237Z,1.73
2022-12-23T05:26:08.117Z,1.61
2022-12-23T05:28:37.070Z,1.61
2022-12-23T05:31:09.187Z,1.58
2022-12-23T05:33:38.157Z,1.56
2022-12-23T05:36:08.412Z,1.62
2022-12-23T05:38:37.267Z,1.70
2022-12-23T05:41:06.862Z,1.60
2022-12-23T05:43:35.863Z,1.78
2022-12-23T05:46:04.724Z,1.61
2022-12-23T05:48:35.008Z,1.70
2022-12-23T05:51:03.904Z,1.50
2022-12-23T05:53:32.947Z,1.63
2022-12-23T05:56:05.443Z,1.66
2022-12-23T05:58:34.345Z,1.84
2022-12-23T06:01:04.196Z,1.68
2022-12-23T06:03:34.698Z,1.74
2022-12-23T06:06:03.793Z,1.87
2022-12-23T06:08:32.718Z,1.76
2022-12-23T06:11:02.109Z,1.67
2022-12-23T06:13:30.932Z,1.68
2022-12-23T06:15:59.771Z,1.84
2022-12-23T06:18:28.643Z,2.07
2022-12-23T06:20:58.924Z,2.03
2022-12-23T06:23:27.839Z,2.18
2022-12-23T06:26:00.310Z,2.24
2022-12-23T06:28:30.557Z,2.35
2022-12-23T06:30:59.537Z,2.27
2022-12-23T06:33:28.293Z,2.16
2022-12-23T06:35:58.506Z,1.63
2022-12-23T06:38:27.342Z,1.79
2022-12-23T06:40:56.214Z,2.31
2022-12-23T06:43:24.982Z,2.83
2022-12-23T06:45:53.852Z,3.17
2022-12-23T06:48:22.715Z,3.78
2022-12-23T06:50:51.543Z,4.12
2022-12-23T06:53:22.360Z,4.21
2022-12-23T06:55:51.170Z,4.04
2022-12-23T06:58:20.126Z,4.36
2022-12-23T07:00:49.039Z,4.20
2022-12-23T07:03:17.964Z,4.32
2022-12-23T07:05:48.453Z,4.33
2022-12-23T07:08:17.596Z,4.12
2022-12-23T07:10:47.942Z,4.05
2022-12-23T07:13:17.979Z,4.02
2022-12-23T07:15:46.753Z,3.88
2022-12-23T07:18:16.550Z,3.82
2022-12-23T07:20:45.343Z,4.21
2022-12-23T07:23:14.436Z,4.23
2022-12-23T07:25:43.201Z,4.31
2022-12-23T07:28:13.456Z,4.42
2022-12-23T07:30:42.269Z,4.28
2022-12-23T07:33:11.141Z,4.21
2022-12-23T07:35:42.187Z,4.16
2022-12-23T07:38:11.726Z,4.22
2022-12-23T07:40:40.598Z,4.05
2022-12-23T07:43:11.288Z,3.92
2022-12-23T07:45:41.864Z,4.11
2022-12-23T07:48:10.734Z,4.11
2022-12-23T07:50:39.587Z,4.02
2022-12-23T07:53:08.462Z,4.26
2022-12-23T07:55:37.376Z,4.39
2022-12-23T07:58:06.317Z,4.61
2022-12-23T08:00:35.144Z,4.81
2022-12-23T08:03:05.549Z,5.00
2022-12-23T08:05:34.452Z,5.03
2022-12-23T08:08:04.218Z,5.18
2022-12-23T08:10:33.048Z,5.45
2022-12-23T08:13:02.117Z,5.59
2022-12-23T08:15:31.023Z,5.71
2022-12-23T08:17:59.854Z,5.91
2022-12-23T08:20:30.913Z,6.16
2022-12-23T08:22:59.731Z,6.36
2022-12-23T08:25:28.559Z,6.24
2022-12-23T08:27:57.433Z,6.24
2022-12-23T08:30:26.506Z,6.41
2022-12-23T08:32:55.411Z,6.27
2022-12-23T08:35:24.371Z,5.90
2022-12-23T08:37:54.549Z,6.20
2022-12-23T08:40:23.381Z,6.30
2022-12-23T08:42:52.197Z,6.38
2022-12-23T08:45:21.712Z,6.65
2022-12-23T08:47:50.515Z,6.84
2022-12-23T08:50:19.326Z,6.91
2022-12-23T08:52:48.162Z,6.63
2022-12-23T08:55:18.398Z,6.25
2022-12-23T08:57:47.195Z,6.16
2022-12-23T09:00:16.488Z,6.32
2022-12-23T09:02:45.387Z,6.43
2022-12-23T09:05:14.297Z,6.40
2022-12-23T09:07:43.130Z,6.68
2022-12-23T09:10:11.961Z,6.93
2022-12-23T09:12:42.187Z,6.85
2022-12-23T09:15:11.917Z,6.92
2022-12-23T09:17:40.783Z,6.89
2022-12-23T09:20:10.580Z,6.58
2022-12-23T09:22:39.406Z,6.34
2022-12-23T09:25:08.751Z,6.27
2022-12-23T09:27:38.064Z,6.44
2022-12-23T09:30:10.324Z,6.62
2022-12-23T09:32:39.170Z,7.29
2022-12-23T09:35:08.774Z,7.58
2022-12-23T09:37:37.668Z,7.04
2022-12-23T09:40:07.206Z,7.31
2022-12-23T09:42:49.000Z,6.79
2022-12-23T09:45:40.483Z,8.07
2022-12-23T09:48:15.009Z,8.21
2022-12-23T09:50:45.654Z,8.53
2022-12-23T09:53:16.492Z,8.51
2022-12-23T09:55:52.300Z,8.45
2022-12-23T09:58:29.956Z,8.38
2022-12-23T10:01:12.055Z,8.41
2022-12-23T10:04:00.887Z,8.38
2022-12-23T10:06:31.660Z,8.27
2022-12-23T10:09:03.327Z,8.53
2022-12-23T10:11:35.398Z,8.70
2022-12-23T10:14:13.176Z,8.58
2022-12-23T10:16:46.535Z,7.83
2022-12-23T10:19:19.343Z,8.44
2022-12-23T10:21:51.955Z,8.11
2022-12-23T10:24:24.194Z,7.94
2022-12-23T10:26:54.803Z,8.02
2022-12-23T10:29:25.123Z,7.99
2022-12-23T10:32:08.284Z,8.47
2022-12-23T10:34:45.688Z,8.54
2022-12-23T10:37:21.466Z,8.81
2022-12-23T10:40:00.182Z,8.54
2022-12-23T10:42:35.260Z,8.62
2022-12-23T10:45:20.551Z,8.82
2022-12-23T10:48:13.950Z,8.56
2022-12-23T10:50:52.412Z,8.77
2022-12-23T10:53:32.528Z,8.96
2022-12-23T10:56:02.195Z,8.94
2022-12-23T10:58:31.891Z,9.08
2022-12-23T11:01:10.092Z,9.18
2022-12-23T11:03:50.161Z,9.11
2022-12-23T11:06:19.413Z,9.24
2022-12-23T11:08:48.736Z,9.23
2022-12-23T11:11:17.642Z,9.15
2022-12-23T11:13:47.691Z,9.15
2022-12-23T11:16:23.538Z,8.85
2022-12-23T11:19:00.281Z,9.13
2022-12-23T11:21:31.968Z,9.35
2022-12-23T11:24:09.271Z,9.56
2022-12-23T11:26:38.234Z,9.54
2022-12-23T11:29:11.090Z,9.61
2022-12-23T11:31:40.353Z,9.47
2022-12-23T11:34:17.347Z,9.43
2022-12-23T11:36:56.633Z,9.18
2022-12-23T11:39:32.959Z,9.12
2022-12-23T11:42:08.651Z,8.98
2022-12-23T11:44:42.791Z,9.14
2022-12-23T11:47:29.354Z,9.20
2022-12-23T11:50:02.116Z,9.26
2022-12-23T11:52:32.734Z,9.30
2022-12-23T11:55:03.335Z,9.41
2022-12-23T11:57:44.144Z,9.57
2022-12-23T12:00:21.799Z,9.59
2022-12-23T12:02:52.965Z,9.40
2022-12-23T12:05:30.062Z,9.51
2022-12-23T12:08:02.180Z,9.48
2022-12-23T12:10:33.886Z,9.62
2022-12-23T12:13:04.899Z,9.63
2022-12-23T12:15:44.213Z,9.59
2022-12-23T12:18:17.108Z,9.80
2022-12-23T12:20:51.962Z,9.97
2022-12-23T12:23:26.666Z,9.79
2022-12-23T12:26:01.037Z,9.66
2022-12-23T12:28:36.094Z,9.72
2022-12-23T12:31:13.929Z,9.79
2022-12-23T12:33:49.808Z,9.88
2022-12-23T12:36:30.102Z,9.94
2022-12-23T12:39:00.818Z,9.70
2022-12-23T12:41:38.331Z,9.87
2022-12-23T12:44:33.231Z,9.89
2022-12-23T12:47:28.170Z,10.02
2022-12-23T12:50:00.799Z,10.05
2022-12-23T12:52:35.695Z,10.04
2022-12-23T12:55:14.445Z,9.82
2022-12-23T12:57:43.835Z,9.25
2022-12-23T13:00:16.395Z,9.53
2022-12-23T13:03:14.255Z,9.59
2022-12-23T13:05:56.938Z,9.66
2022-12-23T13:08:46.665Z,9.58
2022-12-23T13:11:26.583Z,9.58
2022-12-23T13:14:08.795Z,9.55
2022-12-23T13:16:49.827Z,9.55
2022-12-23T13:19:28.361Z,9.57
2022-12-23T13:22:04.197Z,9.64
2022-12-23T13:24:43.807Z,9.58
2022-12-23T13:27:18.727Z,9.69
2022-12-23T13:30:04.334Z,9.55
2022-12-23T13:32:52.965Z,9.38
2022-12-23T13:35:37.203Z,9.48
2022-12-23T13:38:18.496Z,9.40
2022-12-23T13:41:00.253Z,9.39
2022-12-23T13:43:38.319Z,9.57
2022-12-23T13:46:17.099Z,9.78
2022-12-23T13:48:53.631Z,9.53
2022-12-23T13:51:34.587Z,9.40
2022-12-23T13:54:12.735Z,9.10
2022-12-23T13:56:50.443Z,9.27
2022-12-23T13:59:19.255Z,9.22
2022-12-23T14:01:52.554Z,9.22
2022-12-23T14:04:34.484Z,8.98
2022-12-23T14:07:08.464Z,8.97
2022-12-23T14:09:39.574Z,8.92
2022-12-23T14:12:20.898Z,9.11
2022-12-23T14:15:05.791Z,9.05
2022-12-23T14:17:43.807Z,9.01
2022-12-23T14:20:29.020Z,9.48
2022-12-23T14:23:08.664Z,10.41
2022-12-23T14:25:56.261Z,10.82
2022-12-23T14:28:57.671Z,11.04
2022-12-23T14:31:37.461Z,11.04
2022-12-23T14:34:24.190Z,11.06
2022-12-23T14:37:32.379Z,10.74
2022-12-23T14:40:40.067Z,10.38
2022-12-23T14:43:33.539Z,10.73
2022-12-23T14:46:06.187Z,10.77
2022-12-23T14:49:38.281Z,10.72
2022-12-23T14:52:46.907Z,10.65
2022-12-23T14:55:44.066Z,9.57
2022-12-23T14:59:02.090Z,9.66
2022-12-23T15:01:37.199Z,10.43
2022-12-23T15:04:17.835Z,10.05
2022-12-23T15:06:49.455Z,9.67
2022-12-23T15:09:23.928Z,9.27
2022-12-23T15:11:54.732Z,9.17
2022-12-23T15:14:32.771Z,9.45
2022-12-23T15:17:15.950Z,9.15
2022-12-23T15:19:48.631Z,8.90
2022-12-23T15:22:25.239Z,9.23
2022-12-23T15:24:59.035Z,9.46
2022-12-23T15:27:30.427Z,9.48
2022-12-23T15:29:59.796Z,9.41
2022-12-23T15:32:30.876Z,9.64
2022-12-23T15:35:05.170Z,9.47
2022-12-23T15:37:35.122Z,9.47
2022-12-23T15:40:12.025Z,9.78
2022-12-23T15:42:48.676Z,10.04
2022-12-23T15:45:36.394Z,9.85
2022-12-23T15:48:23.020Z,9.68
2022-12-23T15:50:54.549Z,9.51
2022-12-23T15:53:23.755Z,9.35
2022-12-23T15:55:52.643Z,9.34
2022-12-23T15:58:25.441Z,8.91
2022-12-23T16:00:57.613Z,7.97
2022-12-23T16:03:34.053Z,7.61
2022-12-23T16:06:12.016Z,7.76
2022-12-23T16:08:40.925Z,7.50
2022-12-23T16:11:15.614Z,7.31
2022-12-23T16:13:58.746Z,7.20
2022-12-23T16:16:38.073Z,7.02
2022-12-23T16:19:28.435Z,6.82
2022-12-23T16:21:57.335Z,6.87
2022-12-23T16:24:26.176Z,7.13
2022-12-23T16:26:56.404Z,6.74
2022-12-23T16:29:25.696Z,6.91
2022-12-23T16:32:01.641Z,6.81
2022-12-23T16:34:33.247Z,6.69
2022-12-23T16:37:02.122Z,6.59
2022-12-23T16:39:30.926Z,6.75
2022-12-23T16:41:59.756Z,6.73
2022-12-23T16:44:28.705Z,6.82
2022-12-23T16:46:57.536Z,6.74
2022-12-23T16:49:33.205Z,6.55
2022-12-23T16:52:05.448Z,6.62
2022-12-23T16:54:34.353Z,6.40
2022-12-23T16:57:03.696Z,6.43
2022-12-23T16:59:32.504Z,7.32
2022-12-23T17:02:03.974Z,7.80
2022-12-23T17:04:32.972Z,8.44
2022-12-23T17:07:03.732Z,8.30
2022-12-23T17:09:32.515Z,8.06
2022-12-23T17:12:02.056Z,7.78
2022-12-23T17:14:32.135Z,7.45
2022-12-23T17:17:01.145Z,6.78
2022-12-23T17:19:32.111Z,6.85
2022-12-23T17:22:04.538Z,6.63
2022-12-23T17:24:33.466Z,6.50
2022-12-23T17:27:02.293Z,6.57
2022-12-23T17:29:31.252Z,6.36
2022-12-23T17:32:00.218Z,6.48
2022-12-23T17:34:29.583Z,6.36
2022-12-23T17:37:00.720Z,6.16
2022-12-23T17:39:31.047Z,6.26
2022-12-23T17:41:59.911Z,5.85
2022-12-23T17:44:29.539Z,5.90
2022-12-23T17:46:59.537Z,5.98
2022-12-23T17:49:28.363Z,5.72
2022-12-23T17:51:57.173Z,5.92
2022-12-23T17:54:26.810Z,5.78
2022-12-23T17:56:58.493Z,5.65
2022-12-23T17:59:27.371Z,5.77
2022-12-23T18:01:56.243Z,5.94
2022-12-23T18:04:25.121Z,5.70
2022-12-23T18:06:53.951Z,6.02
2022-12-23T18:09:23.395Z,5.73
2022-12-23T18:11:52.210Z,5.71
2022-12-23T18:14:28.086Z,5.75
2022-12-23T18:16:57.464Z,5.71
2022-12-23T18:19:26.458Z,5.84
2022-12-23T18:21:55.237Z,5.70
2022-12-23T18:24:24.066Z,5.64
2022-12-23T18:26:52.867Z,5.43
2022-12-23T18:29:23.064Z,5.39
2022-12-23T18:31:52.353Z,5.06
2022-12-23T18:34:21.767Z,4.91
2022-12-23T18:36:52.086Z,5.13
2022-12-23T18:39:21.502Z,5.17
2022-12-23T18:41:50.417Z,5.43
2022-12-23T18:44:20.964Z,5.35
2022-12-23T18:46:51.501Z,5.30
2022-12-23T18:49:20.456Z,5.30
2022-12-23T18:51:49.265Z,4.79
2022-12-23T18:54:18.425Z,4.96
2022-12-23T18:56:48.012Z,4.84
2022-12-23T18:59:22.833Z,4.75
2022-12-23T19:02:00.158Z,5.07
2022-12-23T19:04:29.902Z,4.69
2022-12-23T19:06:59.081Z,4.98
2022-12-23T19:09:27.949Z,5.17
2022-12-23T19:11:56.745Z,4.88
2022-12-23T19:14:25.559Z,5.03
2022-12-23T19:16:54.400Z,5.33
2022-12-23T19:19:24.619Z,5.39
2022-12-23T19:21:53.497Z,5.36
2022-12-23T19:24:22.376Z,5.22
2022-12-23T19:26:51.416Z,5.45
2022-12-23T19:29:20.409Z,5.07
2022-12-23T19:31:49.189Z,4.97
2022-12-23T19:34:18.054Z,5.73
2022-12-23T19:36:48.364Z,6.37
2022-12-23T19:39:18.376Z,6.95
2022-12-23T19:41:47.242Z,7.09
2022-12-23T19:44:16.054Z,6.64
2022-12-23T19:46:44.974Z,6.13
2022-12-23T19:49:19.484Z,5.72
2022-12-23T19:51:50.569Z,5.85
2022-12-23T19:54:19.981Z,5.66
2022-12-23T19:56:51.186Z,5.78
2022-12-23T19:59:20.627Z,6.14
2022-12-23T20:01:50.067Z,5.13
2022-12-23T20:04:19.030Z,5.47
2022-12-23T20:06:47.888Z,5.45
2022-12-23T20:09:18.119Z,5.49
2022-12-23T20:11:49.374Z,5.02
2022-12-23T20:14:21.700Z,4.92
2022-12-23T20:16:50.644Z,5.35
2022-12-23T20:19:19.919Z,5.07
2022-12-23T20:21:48.713Z,5.24
2022-12-23T20:24:18.967Z,5.15
2022-12-23T20:26:47.866Z,4.99
2022-12-23T20:29:16.678Z,5.18
2022-12-23T20:31:45.680Z,5.08
2022-12-23T20:34:17.197Z,5.27
2022-12-23T20:36:46.351Z,5.29
2022-12-23T20:39:15.229Z,5.58
2022-12-23T20:41:45.511Z,5.75
2022-12-23T20:47:03.753Z,5.48
2022-12-23T20:49:32.684Z,5.31
2022-12-23T20:52:02.046Z,5.05
2022-12-23T20:54:33.741Z,4.80
2022-12-23T20:57:04.327Z,4.66
2022-12-23T20:59:33.189Z,4.62
2022-12-23T21:02:02.915Z,4.74
2022-12-23T21:04:31.846Z,4.68
2022-12-23T21:07:00.689Z,4.58
2022-12-23T21:09:29.936Z,4.50
2022-12-23T21:11:58.973Z,4.58
2022-12-23T21:14:29.513Z,4.31
2022-12-23T21:16:58.392Z,4.19
2022-12-23T21:19:27.738Z,4.32
2022-12-23T21:21:56.586Z,4.14
2022-12-23T21:24:25.758Z,4.31
2022-12-23T21:26:56.849Z,4.17
2022-12-23T21:29:26.573Z,4.32
2022-12-23T21:31:57.056Z,4.91
2022-12-23T21:34:26.251Z,5.22
2022-12-23T21:36:55.247Z,5.19
2022-12-23T21:39:24.194Z,5.16
2022-12-23T21:41:53.138Z,5.23
2022-12-23T21:44:22.049Z,5.55
2022-12-23T21:46:52.116Z,5.33
2022-12-23T21:49:22.554Z,4.93
2022-12-23T21:51:51.424Z,4.62
2022-12-23T21:54:20.295Z,4.42
2022-12-23T21:56:49.074Z,4.26
2022-12-23T21:59:17.943Z,4.13
2022-12-23T22:01:46.806Z,4.15
2022-12-23T22:04:15.635Z,4.25
2022-12-23T22:06:46.749Z,4.09
2022-12-23T22:09:18.196Z,4.32
2022-12-23T22:11:48.331Z,3.93
2022-12-23T22:14:18.840Z,4.68
2022-12-23T22:16:47.801Z,5.20
2022-12-23T22:19:17.024Z,4.70
2022-12-23T22:21:47.379Z,4.47
2022-12-23T22:24:16.616Z,4.76
2022-12-23T22:26:45.449Z,5.08
2022-12-23T22:29:14.243Z,5.18
2022-12-23T22:31:45.548Z,4.70
2022-12-23T22:34:16.623Z,4.68
2022-12-23T22:36:45.553Z,4.70
2022-12-23T22:39:20.758Z,4.91
2022-12-23T22:41:51.364Z,4.93
2022-12-23T22:44:20.991Z,4.49
2022-12-23T22:46:50.421Z,4.09
2022-12-23T22:49:19.590Z,3.95
2022-12-23T22:51:48.564Z,3.90
2022-12-23T22:54:18.782Z,3.62
2022-12-23T22:56:47.622Z,3.82
2022-12-23T22:59:21.577Z,3.57
2022-12-23T23:01:51.411Z,3.46
2022-12-23T23:04:20.391Z,3.49
2022-12-23T23:06:49.303Z,3.35
2022-12-23T23:09:22.319Z,3.60
2022-12-23T23:11:51.563Z,3.38
2022-12-23T23:14:21.310Z,3.34
2022-12-23T23:16:50.227Z,3.18
2022-12-23T23:19:20.510Z,3.35
2022-12-23T23:21:49.912Z,3.52
2022-12-23T23:24:20.102Z,3.43
2022-12-23T23:26:48.977Z,3.52
2022-12-23T23:29:17.892Z,3.37
2022-12-23T23:31:46.803Z,3.48
2022-12-23T23:34:15.637Z,3.15
2022-12-23T23:36:44.536Z,2.80
2022-12-23T23:39:14.477Z,3.00
2022-12-23T23:41:45.251Z,3.06
2022-12-23T23:44:14.165Z,2.68
2022-12-23T23:46:42.949Z,2.93
2022-12-23T23:49:11.775Z,3.07
2022-12-23T23:51:41.683Z,3.11
2022-12-23T23:54:10.758Z,3.26
2022-12-23T23:56:39.819Z,3.36
2022-12-23T23:59:10.565Z,3.23
